createdAt,value
2018-10-06T00:00:51.971Z,0.00
2018-10-06T00:01:52.007Z,0.00
2018-10-06T00:02:52.052Z,0.00
2018-10-06T00:03:52.084Z,0.00
2018-10-06T00:04:52.123Z,0.00
2018-10-06T00:05:52.199Z,0.00
2018-10-06T00:06:52.203Z,0.00
2018-10-06T00:07:52.242Z,0.00
2018-10-06T00:08:52.277Z,0.00
2018-10-06T00:09:52.316Z,0.00
2018-10-06T00:10:52.354Z,0.00
2018-10-06T00:11:52.400Z,0.00
2018-10-06T00:12:52.430Z,0.00
2018-10-06T00:13:52.470Z,0.00
2018-10-06T00:14:52.507Z,0.00
2018-10-06T00:15:52.547Z,0.00
2018-10-06T00:16:52.586Z,0.00
2018-10-06T00:17:52.623Z,0.00
2018-10-06T00:18:52.663Z,0.00
2018-10-06T00:19:52.699Z,0.00
2018-10-06T00:20:52.739Z,0.00
2018-10-06T00:21:52.778Z,0.00
2018-10-06T00:22:52.815Z,0.00
2018-10-06T00:23:52.853Z,0.00
2018-10-06T00:24:52.893Z,0.00
2018-10-06T00:25:52.929Z,0.00
2018-10-06T00:26:52.969Z,0.00
2018-10-06T00:27:53.006Z,0.00
2018-10-06T00:28:53.044Z,0.00
2018-10-06T00:29:53.083Z,0.00
2018-10-06T00:30:53.124Z,0.00
2018-10-06T00:31:53.158Z,0.00
2018-10-06T00:32:53.197Z,0.00
2018-10-06T00:33:53.235Z,0.00
2018-10-06T00:34:53.275Z,0.00
2018-10-06T00:35:53.312Z,0.00
2018-10-06T00:36:53.353Z,0.00
2018-10-06T00:37:53.389Z,0.00
2018-10-06T00:38:53.428Z,0.00
2018-10-06T00:39:53.466Z,0.00
2018-10-06T00:40:53.505Z,0.00
2018-10-06T00:41:53.544Z,0.00
2018-10-06T00:42:53.590Z,0.00
2018-10-06T00:43:53.621Z,0.00
2018-10-06T00:44:53.658Z,0.00
2018-10-06T00:45:53.695Z,0.00
2018-10-06T00:46:53.743Z,0.00
2018-10-06T00:47:53.775Z,0.00
2018-10-06T00:48:53.812Z,0.00
2018-10-06T00:49:53.855Z,0.00
2018-10-06T00:50:53.889Z,0.00
2018-10-06T00:51:53.929Z,0.00
2018-10-06T00:52:53.967Z,0.00
2018-10-06T00:53:54.004Z,0.00
2018-10-06T00:54:54.042Z,0.00
2018-10-06T00:55:54.086Z,0.00
2018-10-06T00:56:54.127Z,0.00
2018-10-06T00:57:54.155Z,0.00
2018-10-06T00:58:54.193Z,0.00
2018-10-06T00:59:54.232Z,0.00
2018-10-06T01:00:54.270Z,0.00
2018-10-06T01:01:54.309Z,0.00
2018-10-06T01:02:54.348Z,0.00
2018-10-06T01:03:54.385Z,0.00
2018-10-06T01:04:54.424Z,0.00
2018-10-06T01:05:54.469Z,0.00
2018-10-06T01:06:54.500Z,0.00
2018-10-06T01:07:54.538Z,0.00
2018-10-06T01:08:54.576Z,0.00
2018-10-06T01:09:54.615Z,0.00
2018-10-06T01:10:54.661Z,0.00
2018-10-06T01:11:54.690Z,0.00
2018-10-06T01:12:54.734Z,0.00
2018-10-06T01:13:54.769Z,0.00
2018-10-06T01:14:54.811Z,0.00
2018-10-06T01:15:54.843Z,0.00
2018-10-06T01:16:54.892Z,0.00
2018-10-06T01:17:54.922Z,0.00
2018-10-06T01:18:54.959Z,0.00
2018-10-06T01:19:55.013Z,0.00
2018-10-06T01:20:55.041Z,0.00
2018-10-06T01:21:55.077Z,0.00
2018-10-06T01:22:55.113Z,0.00
2018-10-06T01:23:55.155Z,0.00
2018-10-06T01:24:55.190Z,0.00
2018-10-06T01:25:55.228Z,0.00
2018-10-06T01:26:55.277Z,0.00
2018-10-06T01:27:55.305Z,0.00
2018-10-06T01:28:55.341Z,0.00
2018-10-06T01:29:55.380Z,0.00
2018-10-06T01:30:55.420Z,0.00
2018-10-06T01:31:55.458Z,0.00
2018-10-06T01:32:55.832Z,0.00
2018-10-06T01:33:55.532Z,0.00
2018-10-06T01:34:55.571Z,0.00
2018-10-06T01:35:55.607Z,0.00
2018-10-06T01:36:55.648Z,0.00
2018-10-06T01:37:55.723Z,0.00
2018-10-06T01:38:55.725Z,0.00
2018-10-06T01:39:55.765Z,0.00
2018-10-06T01:40:55.801Z,0.00
2018-10-06T01:41:55.847Z,0.00
2018-10-06T01:42:55.877Z,0.00
2018-10-06T01:43:55.914Z,0.00
2018-10-06T01:44:55.953Z,0.00
2018-10-06T01:45:55.991Z,0.00
2018-10-06T01:46:56.031Z,0.00
2018-10-06T01:47:56.071Z,0.00
2018-10-06T01:48:56.105Z,0.00
2018-10-06T01:49:56.188Z,0.00
2018-10-06T01:50:56.231Z,0.00
2018-10-06T01:51:56.228Z,0.00
2018-10-06T01:52:56.260Z,0.00
2018-10-06T01:53:56.301Z,0.00
2018-10-06T01:54:56.335Z,0.00
2018-10-06T01:55:56.376Z,0.00
2018-10-06T01:56:56.411Z,0.00
2018-10-06T01:57:56.450Z,0.00
2018-10-06T01:58:56.491Z,0.00
2018-10-06T01:59:56.527Z,0.00
2018-10-06T02:00:56.563Z,0.00
2018-10-06T02:01:56.602Z,0.00
2018-10-06T02:02:56.641Z,0.00
2018-10-06T02:03:56.676Z,0.00
2018-10-06T02:04:56.715Z,0.00
2018-10-06T02:05:56.754Z,0.00
2018-10-06T02:06:56.932Z,0.00
2018-10-06T02:07:56.828Z,0.00
2018-10-06T02:08:56.874Z,0.00
2018-10-06T02:09:56.905Z,0.00
2018-10-06T02:10:56.944Z,0.00
2018-10-06T02:11:56.982Z,0.00
2018-10-06T02:12:57.021Z,0.00
2018-10-06T02:13:57.058Z,0.00
2018-10-06T02:14:57.106Z,0.00
2018-10-06T02:15:57.133Z,0.00
2018-10-06T02:16:57.172Z,0.00
2018-10-06T02:17:57.220Z,0.00
2018-10-06T02:18:57.250Z,0.00
2018-10-06T02:19:57.288Z,0.00
2018-10-06T02:20:57.325Z,0.00
2018-10-06T02:21:57.366Z,0.00
2018-10-06T02:22:57.406Z,0.00
2018-10-06T02:23:57.506Z,0.00
2018-10-06T02:24:57.478Z,0.00
2018-10-06T02:25:57.517Z,0.00
2018-10-06T02:26:57.559Z,0.00
2018-10-06T02:27:57.591Z,0.00
2018-10-06T02:28:57.631Z,0.00
2018-10-06T02:29:57.675Z,0.00
2018-10-06T02:30:57.709Z,0.00
2018-10-06T02:31:57.756Z,0.00
2018-10-06T02:32:57.784Z,0.00
2018-10-06T02:33:57.824Z,0.00
2018-10-06T02:34:57.858Z,0.00
2018-10-06T02:35:57.903Z,0.00
2018-10-06T02:36:58.090Z,0.00
2018-10-06T02:37:57.970Z,0.00
2018-10-06T02:38:58.011Z,0.00
2018-10-06T02:39:58.047Z,0.00
2018-10-06T02:40:58.086Z,0.00
2018-10-06T02:41:58.130Z,0.00
2018-10-06T02:42:58.162Z,0.00
2018-10-06T02:43:58.201Z,0.00
2018-10-06T02:44:58.237Z,0.00
2018-10-06T02:45:58.285Z,0.00
2018-10-06T02:46:58.315Z,0.00
2018-10-06T02:47:58.353Z,0.00
2018-10-06T02:48:58.390Z,0.00
2018-10-06T02:49:58.489Z,0.00
2018-10-06T02:50:58.466Z,0.00
2018-10-06T02:51:58.505Z,0.00
2018-10-06T02:52:58.541Z,0.00
2018-10-06T02:53:58.591Z,0.00
2018-10-06T02:54:58.618Z,0.00
2018-10-06T02:55:58.659Z,0.00
2018-10-06T02:56:58.698Z,0.00
2018-10-06T02:57:58.735Z,0.00
2018-10-06T02:58:58.777Z,0.00
2018-10-06T02:59:58.818Z,0.00
2018-10-06T03:00:58.851Z,0.00
2018-10-06T03:01:58.888Z,0.00
2018-10-06T03:02:58.923Z,0.00
2018-10-06T03:03:58.958Z,0.00
2018-10-06T03:04:58.997Z,0.00
2018-10-06T03:05:59.048Z,0.00
2018-10-06T03:06:59.074Z,0.00
2018-10-06T03:07:59.112Z,0.00
2018-10-06T03:08:59.158Z,0.00
2018-10-06T03:09:59.196Z,0.00
2018-10-06T03:10:59.226Z,0.00
2018-10-06T03:11:59.264Z,0.00
2018-10-06T03:12:59.302Z,0.00
2018-10-06T03:13:59.340Z,0.00
2018-10-06T03:14:59.378Z,0.00
2018-10-06T03:15:59.416Z,0.00
2018-10-06T03:16:59.452Z,0.00
2018-10-06T03:17:59.492Z,0.00
2018-10-06T03:18:59.536Z,0.00
2018-10-06T03:19:59.568Z,0.00
2018-10-06T03:20:59.607Z,0.00
2018-10-06T03:21:59.644Z,0.00
2018-10-06T03:22:59.682Z,0.00
2018-10-06T03:23:59.721Z,0.00
2018-10-06T03:24:59.758Z,0.00
2018-10-06T03:25:59.797Z,0.00
2018-10-06T03:26:59.832Z,0.00
2018-10-06T03:27:59.871Z,0.00
2018-10-06T03:28:59.908Z,0.00
2018-10-06T03:29:59.948Z,0.00
2018-10-06T03:30:59.991Z,0.00
2018-10-06T03:32:00.034Z,0.00
2018-10-06T03:33:00.060Z,0.00
2018-10-06T03:34:00.099Z,0.00
2018-10-06T03:35:00.245Z,0.00
2018-10-06T03:36:00.173Z,0.00
2018-10-06T03:37:00.210Z,0.00
2018-10-06T03:38:00.250Z,0.00
2018-10-06T03:39:00.287Z,0.00
2018-10-06T03:40:00.328Z,0.00
2018-10-06T03:41:00.373Z,0.00
2018-10-06T03:42:00.404Z,0.00
2018-10-06T03:43:00.439Z,0.00
2018-10-06T03:44:00.477Z,0.00
2018-10-06T03:45:00.513Z,0.00
2018-10-06T03:46:00.553Z,0.00
2018-10-06T03:47:00.592Z,0.00
2018-10-06T03:48:00.627Z,0.00
2018-10-06T03:49:00.665Z,0.00
2018-10-06T03:50:00.704Z,0.00
2018-10-06T03:51:00.741Z,0.00
2018-10-06T03:52:00.781Z,0.00
2018-10-06T03:53:00.821Z,0.00
2018-10-06T03:54:00.926Z,0.00
2018-10-06T03:55:00.893Z,0.00
2018-10-06T03:56:00.929Z,0.00
2018-10-06T03:57:00.968Z,0.00
2018-10-06T03:58:01.006Z,0.00
2018-10-06T03:59:01.045Z,0.00
2018-10-06T04:00:01.082Z,0.00
2018-10-06T04:01:01.119Z,0.00
2018-10-06T04:02:01.157Z,0.00
2018-10-06T04:03:01.195Z,0.00
2018-10-06T04:04:01.371Z,0.00
2018-10-06T04:05:01.275Z,0.00
2018-10-06T04:06:01.320Z,0.00
2018-10-06T04:07:01.346Z,0.00
2018-10-06T04:08:01.384Z,0.00
2018-10-06T04:09:01.421Z,0.00
2018-10-06T04:10:01.459Z,0.00
2018-10-06T04:11:01.508Z,0.00
2018-10-06T04:12:01.536Z,0.00
2018-10-06T04:13:01.573Z,0.00
2018-10-06T04:14:01.612Z,0.00
2018-10-06T04:15:01.647Z,0.00
2018-10-06T04:16:01.685Z,0.00
2018-10-06T04:17:01.728Z,0.00
2018-10-06T04:18:01.768Z,0.00
2018-10-06T04:19:01.805Z,0.00
2018-10-06T04:20:01.844Z,0.00
2018-10-06T04:21:01.874Z,0.00
2018-10-06T04:22:01.912Z,0.00
2018-10-06T04:23:01.953Z,0.00
2018-10-06T04:24:01.988Z,0.00
2018-10-06T04:25:02.032Z,0.00
2018-10-06T04:26:02.067Z,0.00
2018-10-06T04:27:02.101Z,0.00
2018-10-06T04:28:02.139Z,0.00
2018-10-06T04:29:02.182Z,0.00
2018-10-06T04:30:02.215Z,0.00
2018-10-06T04:31:02.254Z,0.00
2018-10-06T04:32:02.291Z,0.00
2018-10-06T04:33:02.330Z,0.00
2018-10-06T04:34:02.369Z,0.00
2018-10-06T04:35:02.412Z,0.00
2018-10-06T04:36:02.442Z,0.00
2018-10-06T04:37:02.480Z,0.00
2018-10-06T04:38:02.519Z,0.00
2018-10-06T04:39:02.554Z,0.00
2018-10-06T04:40:02.592Z,0.00
2018-10-06T04:41:02.634Z,0.00
2018-10-06T04:42:02.666Z,0.00
2018-10-06T04:43:02.704Z,0.00
2018-10-06T04:44:02.745Z,0.00
2018-10-06T04:45:02.791Z,0.00
2018-10-06T04:46:02.826Z,0.00
2018-10-06T04:47:02.889Z,0.00
2018-10-06T04:48:02.902Z,0.00
2018-10-06T04:49:02.933Z,0.00
2018-10-06T04:50:02.972Z,0.00
2018-10-06T04:51:03.009Z,0.00
2018-10-06T04:52:03.054Z,0.00
2018-10-06T04:53:03.088Z,0.00
2018-10-06T04:54:03.120Z,0.00
2018-10-06T04:55:03.167Z,0.00
2018-10-06T04:56:03.194Z,4.00
2018-10-06T04:57:03.233Z,4.00
2018-10-06T04:58:03.270Z,0.00
2018-10-06T04:59:03.309Z,0.00
2018-10-06T05:00:03.346Z,4.00
2018-10-06T05:01:03.386Z,4.00
2018-10-06T05:02:03.423Z,4.00
2018-10-06T05:03:03.459Z,8.00
2018-10-06T05:04:03.498Z,4.00
2018-10-06T05:05:03.536Z,12.00
2018-10-06T05:06:03.573Z,12.00
2018-10-06T05:07:03.609Z,12.00
2018-10-06T05:08:03.648Z,16.00
2018-10-06T05:09:03.687Z,16.00
2018-10-06T05:10:03.724Z,20.00
2018-10-06T05:11:03.762Z,24.00
2018-10-06T05:12:03.839Z,28.00
2018-10-06T05:13:03.834Z,36.00
2018-10-06T05:14:03.874Z,40.00
2018-10-06T05:15:03.913Z,48.00
2018-10-06T05:16:03.947Z,56.00
2018-10-06T05:17:04.002Z,68.00
2018-10-06T05:18:04.024Z,76.00
2018-10-06T05:19:04.062Z,88.00
2018-10-06T05:20:04.100Z,96.00
2018-10-06T05:21:04.139Z,108.00
2018-10-06T05:22:04.175Z,124.00
2018-10-06T05:23:04.214Z,136.00
2018-10-06T05:24:04.250Z,152.00
2018-10-06T05:25:04.288Z,168.00
2018-10-06T05:26:04.328Z,188.00
2018-10-06T05:27:04.363Z,204.00
2018-10-06T05:28:04.402Z,224.00
2018-10-06T05:29:04.440Z,244.00
2018-10-06T05:30:04.483Z,264.00
2018-10-06T05:31:04.516Z,288.00
2018-10-06T05:32:04.553Z,312.00
2018-10-06T05:33:04.593Z,336.00
2018-10-06T05:34:04.686Z,360.00
2018-10-06T05:35:04.674Z,384.00
2018-10-06T05:36:04.703Z,408.00
2018-10-06T05:37:04.745Z,432.00
2018-10-06T05:38:04.781Z,456.00
2018-10-06T05:39:04.820Z,484.00
2018-10-06T05:40:04.863Z,512.00
2018-10-06T05:41:04.892Z,540.00
2018-10-06T05:42:04.931Z,572.00
2018-10-06T05:43:04.969Z,604.00
2018-10-06T05:44:05.007Z,640.00
2018-10-06T05:45:05.169Z,672.00
2018-10-06T05:46:05.096Z,704.00
2018-10-06T05:47:05.129Z,732.00
2018-10-06T05:48:05.156Z,760.00
2018-10-06T05:49:05.194Z,788.00
2018-10-06T05:50:05.235Z,824.00
2018-10-06T05:51:05.305Z,852.00
2018-10-06T05:52:05.312Z,880.00
2018-10-06T05:53:05.388Z,912.00
2018-10-06T05:54:05.487Z,944.00
2018-10-06T05:55:05.423Z,980.00
2018-10-06T05:56:05.462Z,1016.00
2018-10-06T05:57:05.499Z,1064.00
2018-10-06T05:58:05.536Z,1112.00
2018-10-06T05:59:05.592Z,1164.00
2018-10-06T06:00:05.610Z,1216.00
2018-10-06T06:01:05.658Z,1268.00
2018-10-06T06:02:05.687Z,1328.00
2018-10-06T06:03:05.725Z,1388.00
2018-10-06T06:04:05.762Z,1448.00
2018-10-06T06:05:05.800Z,1512.00
2018-10-06T06:06:05.839Z,1588.00
2018-10-06T06:07:05.877Z,1676.00
2018-10-06T06:08:05.915Z,1768.00
2018-10-06T06:09:05.952Z,1848.00
2018-10-06T06:10:05.989Z,1916.00
2018-10-06T06:11:06.032Z,1968.00
2018-10-06T06:12:06.067Z,2036.00
2018-10-06T06:13:06.103Z,2116.00
2018-10-06T06:14:06.142Z,2200.00
2018-10-06T06:15:06.187Z,2284.00
2018-10-06T06:16:06.216Z,2360.00
2018-10-06T06:17:06.254Z,2432.00
2018-10-06T06:18:06.290Z,2512.00
2018-10-06T06:19:06.329Z,2576.00
2018-10-06T06:20:06.375Z,2652.00
2018-10-06T06:21:06.406Z,2764.00
2018-10-06T06:22:06.445Z,2864.00
2018-10-06T06:23:06.482Z,2920.00
2018-10-06T06:24:06.528Z,3000.00
2018-10-06T06:25:06.557Z,3104.00
2018-10-06T06:26:06.595Z,3188.00
2018-10-06T06:27:06.633Z,3284.00
2018-10-06T06:28:06.674Z,3356.00
2018-10-06T06:29:06.715Z,3400.00
2018-10-06T06:30:06.763Z,3500.00
2018-10-06T06:31:06.808Z,3644.00
2018-10-06T06:32:06.863Z,3800.00
2018-10-06T06:33:06.864Z,3944.00
2018-10-06T06:34:06.900Z,3940.00
2018-10-06T06:35:06.936Z,4036.00
2018-10-06T06:36:06.985Z,4080.00
2018-10-06T06:37:07.014Z,4080.00
2018-10-06T06:38:07.059Z,4060.00
2018-10-06T06:39:07.093Z,4024.00
2018-10-06T06:40:07.139Z,4008.00
2018-10-06T06:41:07.368Z,4000.00
2018-10-06T06:42:07.209Z,4040.00
2018-10-06T06:43:07.249Z,4064.00
2018-10-06T06:44:07.358Z,4048.00
2018-10-06T06:45:07.340Z,3988.00
2018-10-06T06:46:07.359Z,3876.00
2018-10-06T06:47:07.396Z,3820.00
2018-10-06T06:48:07.433Z,3796.00
2018-10-06T06:49:07.478Z,3748.00
2018-10-06T06:50:07.513Z,3728.00
2018-10-06T06:51:07.558Z,3736.00
2018-10-06T06:52:07.586Z,3664.00
2018-10-06T06:53:07.864Z,3684.00
2018-10-06T06:54:07.663Z,3748.00
2018-10-06T06:55:07.815Z,3892.00
2018-10-06T06:56:07.743Z,3868.00
2018-10-06T06:57:07.777Z,3888.00
2018-10-06T06:58:07.817Z,4044.00
2018-10-06T06:59:07.885Z,4096.00
2018-10-06T07:00:07.953Z,4096.00
2018-10-06T07:01:07.932Z,4116.00
2018-10-06T07:02:07.970Z,4120.00
2018-10-06T07:03:08.009Z,4220.00
2018-10-06T07:04:08.046Z,4312.00
2018-10-06T07:05:08.098Z,4480.00
2018-10-06T07:06:08.132Z,4540.00
2018-10-06T07:07:08.163Z,4600.00
2018-10-06T07:08:08.203Z,4644.00
2018-10-06T07:09:08.245Z,4628.00
2018-10-06T07:10:08.278Z,4704.00
2018-10-06T07:11:08.317Z,4792.00
2018-10-06T07:12:08.355Z,4872.00
2018-10-06T07:13:08.479Z,4932.00
2018-10-06T07:14:08.445Z,5052.00
2018-10-06T07:15:08.476Z,5088.00
2018-10-06T07:16:08.596Z,5040.00
2018-10-06T07:17:08.548Z,4988.00
2018-10-06T07:18:08.593Z,4956.00
2018-10-06T07:19:08.624Z,4908.00
2018-10-06T07:20:08.663Z,4776.00
2018-10-06T07:21:08.714Z,4764.00
2018-10-06T07:22:08.741Z,4784.00
2018-10-06T07:23:08.788Z,4792.00
2018-10-06T07:24:08.820Z,4980.00
2018-10-06T07:25:08.858Z,5116.00
2018-10-06T07:26:08.896Z,5116.00
2018-10-06T07:27:08.935Z,5084.00
2018-10-06T07:28:08.974Z,5040.00
2018-10-06T07:29:09.017Z,4956.00
2018-10-06T07:30:09.055Z,4896.00
2018-10-06T07:31:09.091Z,4892.00
2018-10-06T07:32:09.130Z,4868.00
2018-10-06T07:33:09.170Z,4792.00
2018-10-06T07:34:09.207Z,4628.00
2018-10-06T07:35:09.247Z,4644.00
2018-10-06T07:36:09.286Z,4728.00
2018-10-06T07:37:09.341Z,4756.00
2018-10-06T07:38:09.364Z,4708.00
2018-10-06T07:39:09.449Z,4664.00
2018-10-06T07:40:09.451Z,4600.00
2018-10-06T07:41:09.484Z,4556.00
2018-10-06T07:42:09.539Z,4540.00
2018-10-06T07:43:09.612Z,4496.00
2018-10-06T07:44:09.599Z,4448.00
2018-10-06T07:45:09.652Z,4408.00
2018-10-06T07:46:09.679Z,4344.00
2018-10-06T07:47:09.718Z,4304.00
2018-10-06T07:48:09.760Z,4260.00
2018-10-06T07:49:09.796Z,4236.00
2018-10-06T07:50:09.840Z,4224.00
2018-10-06T07:51:09.882Z,4196.00
2018-10-06T07:52:09.915Z,4188.00
2018-10-06T07:53:10.048Z,4168.00
2018-10-06T07:54:09.995Z,4132.00
2018-10-06T07:55:10.042Z,4088.00
2018-10-06T07:56:10.076Z,4048.00
2018-10-06T07:57:10.111Z,4016.00
2018-10-06T07:58:10.154Z,3936.00
2018-10-06T07:59:10.195Z,3944.00
2018-10-06T08:00:10.233Z,3932.00
2018-10-06T08:01:10.276Z,3888.00
2018-10-06T08:02:10.311Z,3904.00
2018-10-06T08:03:10.349Z,3944.00
2018-10-06T08:04:10.386Z,3928.00
2018-10-06T08:05:10.431Z,3928.00
2018-10-06T08:06:10.467Z,3920.00
2018-10-06T08:07:10.508Z,3932.00
2018-10-06T08:08:10.548Z,3892.00
2018-10-06T08:09:10.588Z,3820.00
2018-10-06T08:10:10.628Z,3760.00
2018-10-06T08:11:10.667Z,3800.00
2018-10-06T08:12:10.748Z,3808.00
2018-10-06T08:13:10.744Z,3788.00
2018-10-06T08:14:10.785Z,3808.00
2018-10-06T08:15:10.824Z,3792.00
2018-10-06T08:16:10.864Z,3812.00
2018-10-06T08:17:10.904Z,3844.00
2018-10-06T08:18:10.942Z,3864.00
2018-10-06T08:19:10.982Z,3864.00
2018-10-06T08:20:11.022Z,3836.00
2018-10-06T08:21:11.064Z,3872.00
2018-10-06T08:22:11.108Z,3876.00
2018-10-06T08:23:11.146Z,3876.00
2018-10-06T08:24:11.184Z,3924.00
2018-10-06T08:25:11.221Z,3996.00
2018-10-06T08:26:11.261Z,4012.00
2018-10-06T08:27:11.301Z,4072.00
2018-10-06T08:28:11.340Z,4160.00
2018-10-06T08:29:11.382Z,4228.00
2018-10-06T08:30:11.439Z,4260.00
2018-10-06T08:31:11.462Z,4296.00
2018-10-06T08:32:11.505Z,4324.00
2018-10-06T08:33:11.543Z,4360.00
2018-10-06T08:34:11.590Z,4444.00
2018-10-06T08:35:11.622Z,4472.00
2018-10-06T08:36:11.669Z,4484.00
2018-10-06T08:37:11.709Z,4500.00
2018-10-06T08:38:11.745Z,4488.00
2018-10-06T08:39:11.783Z,4480.00
2018-10-06T08:40:11.822Z,4480.00
2018-10-06T08:41:11.860Z,4484.00
2018-10-06T08:42:11.903Z,4496.00
2018-10-06T08:43:11.943Z,4512.00
2018-10-06T08:44:12.036Z,4512.00
2018-10-06T08:45:12.024Z,4508.00
2018-10-06T08:46:12.064Z,4504.00
2018-10-06T08:47:12.106Z,4520.00
2018-10-06T08:48:12.144Z,4488.00
2018-10-06T08:49:12.189Z,4456.00
2018-10-06T08:50:12.227Z,4456.00
2018-10-06T08:51:12.274Z,4424.00
2018-10-06T08:52:12.306Z,4420.00
2018-10-06T08:53:12.346Z,4424.00
2018-10-06T08:54:12.387Z,4388.00
2018-10-06T08:55:12.435Z,4428.00
2018-10-06T08:56:12.747Z,4376.00
2018-10-06T08:57:12.510Z,4436.00
2018-10-06T08:58:12.548Z,4384.00
2018-10-06T08:59:12.604Z,4428.00
2018-10-06T09:00:12.631Z,4444.00
2018-10-06T09:01:12.685Z,4480.00
2018-10-06T09:02:12.714Z,4484.00
2018-10-06T09:03:12.753Z,4488.00
2018-10-06T09:04:12.806Z,4492.00
2018-10-06T09:05:12.841Z,4472.00
2018-10-06T09:06:12.976Z,4524.00
2018-10-06T09:07:12.923Z,4616.00
2018-10-06T09:08:12.956Z,4608.00
2018-10-06T09:09:13.007Z,4632.00
2018-10-06T09:10:13.047Z,4628.00
2018-10-06T09:11:13.079Z,4664.00
2018-10-06T09:12:13.132Z,4728.00
2018-10-06T09:13:13.168Z,4760.00
2018-10-06T09:14:13.200Z,4788.00
2018-10-06T09:15:13.246Z,4792.00
2018-10-06T09:16:13.299Z,4864.00
2018-10-06T09:17:13.324Z,4908.00
2018-10-06T09:18:13.374Z,5004.00
2018-10-06T09:19:13.406Z,5120.00
2018-10-06T09:20:13.490Z,5192.00
2018-10-06T09:21:13.486Z,5260.00
2018-10-06T09:22:13.529Z,5304.00
2018-10-06T09:23:13.570Z,5364.00
2018-10-06T09:24:13.617Z,5408.00
2018-10-06T09:25:13.653Z,5468.00
2018-10-06T09:26:13.702Z,5484.00
2018-10-06T09:27:13.738Z,5532.00
2018-10-06T09:28:13.819Z,5580.00
2018-10-06T09:29:13.817Z,5640.00
2018-10-06T09:30:13.865Z,5668.00
2018-10-06T09:31:13.909Z,5616.00
2018-10-06T09:32:13.940Z,5612.00
2018-10-06T09:33:13.992Z,5752.00
2018-10-06T09:34:14.023Z,5772.00
2018-10-06T09:35:14.070Z,5776.00
2018-10-06T09:36:14.137Z,5784.00
2018-10-06T09:37:14.149Z,5792.00
2018-10-06T09:38:14.191Z,5740.00
2018-10-06T09:39:14.238Z,5776.00
2018-10-06T09:40:14.278Z,5828.00
2018-10-06T09:41:14.315Z,5864.00
2018-10-06T09:42:14.549Z,5912.00
2018-10-06T09:43:14.401Z,5952.00
2018-10-06T09:44:14.449Z,5996.00
2018-10-06T09:45:14.483Z,6060.00
2018-10-06T09:46:14.525Z,6052.00
2018-10-06T09:47:14.566Z,6068.00
2018-10-06T09:48:14.678Z,6116.00
2018-10-06T09:49:14.649Z,6120.00
2018-10-06T09:50:14.699Z,6092.00
2018-10-06T09:51:14.743Z,6140.00
2018-10-06T09:52:14.784Z,6140.00
2018-10-06T09:53:14.829Z,6184.00
2018-10-06T09:54:14.862Z,6240.00
2018-10-06T09:55:14.906Z,6312.00
2018-10-06T09:56:14.942Z,6376.00
2018-10-06T09:57:14.988Z,6456.00
2018-10-06T09:58:15.037Z,6576.00
2018-10-06T09:59:15.078Z,6640.00
2018-10-06T10:00:15.113Z,6636.00
2018-10-06T10:01:15.156Z,6628.00
2018-10-06T10:02:15.197Z,6592.00
2018-10-06T10:03:15.239Z,6508.00
2018-10-06T10:04:15.282Z,6520.00
2018-10-06T10:05:15.360Z,6480.00
2018-10-06T10:06:15.371Z,6432.00
2018-10-06T10:07:15.418Z,6344.00
2018-10-06T10:08:15.459Z,6260.00
2018-10-06T10:09:15.499Z,6204.00
2018-10-06T10:10:15.553Z,6236.00
2018-10-06T10:11:15.582Z,6204.00
2018-10-06T10:12:15.624Z,6100.00
2018-10-06T10:13:15.672Z,6052.00
2018-10-06T10:14:15.715Z,6056.00
2018-10-06T10:15:15.800Z,6004.00
2018-10-06T10:16:15.795Z,6004.00
2018-10-06T10:17:15.957Z,6072.00
2018-10-06T10:18:15.960Z,6148.00
2018-10-06T10:19:15.920Z,6136.00
2018-10-06T10:20:15.967Z,6124.00
2018-10-06T10:21:16.004Z,6072.00
2018-10-06T10:22:16.110Z,6000.00
2018-10-06T10:23:16.144Z,5956.00
2018-10-06T10:24:16.135Z,5880.00
2018-10-06T10:25:16.179Z,5832.00
2018-10-06T10:26:16.225Z,5772.00
2018-10-06T10:27:16.267Z,5748.00
2018-10-06T10:28:16.311Z,5776.00
2018-10-06T10:29:16.347Z,5820.00
2018-10-06T10:30:16.391Z,5812.00
2018-10-06T10:31:16.436Z,5912.00
2018-10-06T10:32:16.483Z,5976.00
2018-10-06T10:33:16.520Z,6036.00
2018-10-06T10:34:16.568Z,6076.00
2018-10-06T10:35:16.606Z,6060.00
2018-10-06T10:36:16.647Z,6016.00
2018-10-06T10:37:16.758Z,6004.00
2018-10-06T10:38:16.738Z,6004.00
2018-10-06T10:39:16.900Z,6012.00
2018-10-06T10:40:16.820Z,5992.00
2018-10-06T10:41:16.864Z,5980.00
2018-10-06T10:42:16.907Z,5980.00
2018-10-06T10:43:17.224Z,5980.00
2018-10-06T10:44:17.049Z,5972.00
2018-10-06T10:45:17.062Z,5964.00
2018-10-06T10:46:17.123Z,5944.00
2018-10-06T10:47:17.139Z,5892.00
2018-10-06T10:48:17.208Z,5872.00
2018-10-06T10:49:17.214Z,5844.00
2018-10-06T10:50:17.252Z,5812.00
2018-10-06T10:51:17.295Z,5776.00
2018-10-06T10:52:17.365Z,5716.00
2018-10-06T10:53:17.396Z,5648.00
2018-10-06T10:54:17.427Z,5576.00
2018-10-06T10:55:17.471Z,5504.00
2018-10-06T10:56:17.517Z,5400.00
2018-10-06T10:57:17.555Z,5344.00
2018-10-06T10:58:17.598Z,5292.00
2018-10-06T10:59:17.749Z,5236.00
2018-10-06T11:00:17.801Z,5188.00
2018-10-06T11:01:17.786Z,5148.00
2018-10-06T11:02:17.775Z,5100.00
2018-10-06T11:03:17.818Z,5060.00
2018-10-06T11:04:17.861Z,5012.00
2018-10-06T11:05:17.913Z,4980.00
2018-10-06T11:06:17.950Z,4844.00
2018-10-06T11:07:17.999Z,4892.00
2018-10-06T11:08:18.037Z,4872.00
2018-10-06T11:09:18.096Z,4808.00
2018-10-06T11:10:18.120Z,4808.00
2018-10-06T11:11:18.207Z,4788.00
2018-10-06T11:12:18.212Z,4776.00
2018-10-06T11:13:18.255Z,4772.00
2018-10-06T11:14:18.294Z,4484.00
2018-10-06T11:15:18.338Z,4640.00
2018-10-06T11:16:18.384Z,4716.00
2018-10-06T11:17:18.529Z,4744.00
2018-10-06T11:18:18.469Z,4716.00
2018-10-06T11:19:18.514Z,4636.00
2018-10-06T11:20:18.558Z,4760.00
2018-10-06T11:21:18.608Z,4804.00
2018-10-06T11:22:18.643Z,4840.00
2018-10-06T11:23:18.687Z,4840.00
2018-10-06T11:24:18.733Z,4880.00
2018-10-06T11:25:18.798Z,4744.00
2018-10-06T11:26:18.818Z,4716.00
2018-10-06T11:27:18.863Z,4796.00
2018-10-06T11:28:18.904Z,4812.00
2018-10-06T11:29:18.956Z,4864.00
2018-10-06T11:30:18.998Z,4968.00
2018-10-06T11:31:19.039Z,5020.00
2018-10-06T11:32:19.082Z,5116.00
2018-10-06T11:33:19.124Z,5208.00
2018-10-06T11:34:19.171Z,5300.00
2018-10-06T11:35:19.319Z,5408.00
2018-10-06T11:36:19.256Z,5524.00
2018-10-06T11:37:19.360Z,5628.00
2018-10-06T11:38:19.494Z,5688.00
2018-10-06T11:39:19.398Z,5708.00
2018-10-06T11:40:19.431Z,5720.00
2018-10-06T11:41:19.482Z,5704.00
2018-10-06T11:42:19.529Z,5700.00
2018-10-06T11:43:19.569Z,5692.00
2018-10-06T11:44:19.631Z,5688.00
2018-10-06T11:45:19.653Z,5692.00
2018-10-06T11:46:19.697Z,5724.00
2018-10-06T11:47:19.740Z,5800.00
2018-10-06T11:48:19.783Z,5872.00
2018-10-06T11:49:19.832Z,5972.00
2018-10-06T11:50:19.922Z,6056.00
2018-10-06T11:51:19.917Z,6160.00
2018-10-06T11:52:19.962Z,6252.00
2018-10-06T11:53:20.007Z,6276.00
2018-10-06T11:54:20.048Z,6252.00
2018-10-06T11:55:20.094Z,6256.00
2018-10-06T11:56:20.137Z,6288.00
2018-10-06T11:57:20.183Z,6288.00
2018-10-06T11:58:20.272Z,6288.00
2018-10-06T11:59:20.275Z,6136.00
2018-10-06T12:00:20.452Z,6104.00
2018-10-06T12:01:20.360Z,5968.00
2018-10-06T12:02:20.405Z,5736.00
2018-10-06T12:03:20.452Z,5672.00
2018-10-06T12:04:20.498Z,5620.00
2018-10-06T12:05:20.538Z,5512.00
2018-10-06T12:06:20.579Z,5400.00
2018-10-06T12:07:20.631Z,5400.00
2018-10-06T12:08:20.670Z,5228.00
2018-10-06T12:09:20.714Z,5220.00
2018-10-06T12:10:20.759Z,5420.00
2018-10-06T12:11:20.801Z,5184.00
2018-10-06T12:12:20.854Z,5388.00
2018-10-06T12:13:20.892Z,5248.00
2018-10-06T12:14:20.937Z,5340.00
2018-10-06T12:15:20.992Z,5544.00
2018-10-06T12:16:21.028Z,5480.00
2018-10-06T12:17:21.068Z,5412.00
2018-10-06T12:18:21.122Z,5620.00
2018-10-06T12:19:21.158Z,5728.00
2018-10-06T12:20:21.241Z,5644.00
2018-10-06T12:21:21.254Z,5944.00
2018-10-06T12:22:21.292Z,6048.00
2018-10-06T12:23:21.339Z,6176.00
2018-10-06T12:24:21.381Z,6060.00
2018-10-06T12:25:21.425Z,6416.00
2018-10-06T12:26:21.474Z,6528.00
2018-10-06T12:27:21.519Z,6508.00
2018-10-06T12:28:21.558Z,6436.00
2018-10-06T12:29:21.617Z,6640.00
2018-10-06T12:30:21.748Z,6716.00
2018-10-06T12:31:21.692Z,6592.00
2018-10-06T12:32:21.737Z,6604.00
2018-10-06T12:33:21.783Z,6604.00
2018-10-06T12:34:21.829Z,6564.00
2018-10-06T12:35:22.009Z,6388.00
2018-10-06T12:36:21.925Z,6388.00